Time;durP1;ratioP1;P1;durP2;ratioP2;P2;SDS_P1;SDS_P2;PMS_P1;PMS_P2;Temp;Humidity;BMP_temperature;BMP_pressure;BME280_temperature;BME280_humidity;BME280_pressure;Samples;Min_cycle;Max_cycle;Signal;HPM_P1;HPM_P2
2022/03/29 00:02:52;;;;;;;;;;;12.90;39.50;;;11.46;41.20;100982.19;8270533;28;20016;-92
2022/03/29 00:07:14;;;;;;;;;;;12.70;38.80;;;11.51;41.12;100992.41;8254641;28;20011;-91
2022/03/29 00:11:36;;;;;;;;;;;12.90;38.90;;;11.25;40.93;100954.59;8237568;28;20044;-91
2022/03/29 00:15:58;;;;;;;;;;;12.80;38.90;;;11.21;40.88;100947.84;8256388;28;20012;-92
2022/03/29 00:20:20;;;;;;;;;;;12.80;38.90;;;11.31;40.96;100967.31;8238071;28;20028;-92
2022/03/29 00:24:42;;;;;;;;;;;12.70;38.90;;;11.12;40.89;100948.34;8277954;28;20020;-92
2022/03/29 00:29:03;;;;;;;;;;;12.70;38.90;;;11.28;41.10;100970.94;8273936;28;20008;-91
2022/03/29 00:33:25;;;;;;;;;;;12.70;38.90;;;11.24;40.92;100968.59;8280020;28;20016;-91
2022/03/29 00:37:48;;;;;;;;;;;12.60;38.80;;;11.22;41.48;100968.66;8275399;28;20449;-92
2022/03/29 00:42:09;;;;;;;;;;;12.60;38.90;;;11.08;41.11;100953.72;8261372;28;20004;-92
2022/03/29 00:46:32;;;;;;;;;;;12.50;39.00;;;11.10;41.34;100961.50;8256195;28;20016;-92
2022/03/29 00:50:53;;;;;;;;;;;12.50;39.30;;;11.03;41.17;100960.97;8266096;28;20011;-91
2022/03/29 00:55:15;;;;;;;;;;;12.40;39.00;;;10.94;41.22;100953.63;8243420;28;20016;-91
2022/03/29 00:59:39;;;;;;;;;;;12.40;39.10;;;10.96;41.26;100945.69;8253674;28;20004;-90
2022/03/29 01:04:02;;;;;;;;;;;12.40;39.10;;;11.00;41.33;100961.13;8291723;28;20003;-91
2022/03/29 01:08:25;;;;;;;;;;;12.30;39.00;;;10.89;41.42;100942.59;8282031;28;20008;-91
2022/03/29 01:12:47;;;;;;;;;;;12.30;39.20;;;10.90;41.21;100943.41;8275705;28;20015;-92
2022/03/29 01:21:56;;;;;;;;;;;12.30;39.20;;;10.77;42.12;100931.00;8255429;28;20331;-90
2022/03/29 01:26:19;;;;;;;;;;;12.30;39.20;;;10.80;41.04;100927.38;8264122;28;20564;-92
2022/03/29 01:31:19;;;;;;;;;;;12.30;39.40;;;10.84;41.35;100936.75;8257276;28;20336;-92
2022/03/29 01:35:43;;;;;;;;;;;12.30;39.40;;;10.78;41.72;100932.69;8280330;28;20000;-92
2022/03/29 01:40:13;;;;;;;;;;;12.10;40.60;;;10.75;41.70;100925.03;8263357;28;20012;-92
2022/03/29 01:44:35;;;;;;;;;;;12.20;39.60;;;10.65;42.00;100908.16;8269924;28;20011;-92
2022/03/29 01:48:57;;;;;;;;;;;12.20;39.70;;;10.55;41.67;100896.50;8250770;28;20012;-92
2022/03/29 01:53:23;;;;;;;;;;;12.20;39.60;;;10.67;41.41;100916.75;8283388;28;19920;-91
2022/03/29 01:57:46;;;;;;;;;;;12.20;40.40;;;10.63;41.62;100903.00;8247434;28;20024;-92
2022/03/29 02:02:08;;;;;;;;;;;12.00;39.80;;;10.55;42.02;100897.31;8260137;28;20120;-90
2022/03/29 02:06:30;;;;;;;;;;;12.10;40.10;;;10.62;41.52;100918.75;8275006;28;20004;-92
2022/03/29 02:10:52;;;;;;;;;;;12.10;40.40;;;10.55;42.18;100915.59;8299071;28;20004;-92
2022/03/29 02:15:14;;;;;;;;;;;12.00;40.00;;;10.53;41.91;100912.25;8281072;28;20000;-91
2022/03/29 02:19:36;;;;;;;;;;;12.00;39.90;;;10.44;42.07;100894.44;8259550;28;20426;-91
2022/03/29 02:23:58;;;;;;;;;;;12.00;39.90;;;10.52;41.89;100909.72;8278702;28;20008;-92
2022/03/29 02:28:19;;;;;;;;;;;11.90;39.80;;;10.45;42.26;100896.13;8254182;28;20016;-93
2022/03/29 02:32:42;;;;;;;;;;;12.00;40.80;;;10.43;41.73;100908.44;8262692;28;19996;-92
2022/03/29 02:37:03;;;;;;;;;;;11.90;40.20;;;10.29;42.02;100879.56;8239801;28;20017;-92
2022/03/29 02:41:25;;;;;;;;;;;11.90;40.00;;;10.40;42.38;100895.53;8264645;28;20020;-91
2022/03/29 02:45:46;;;;;;;;;;;11.90;40.00;;;10.29;42.05;100879.56;8285953;28;20012;-93
2022/03/29 02:50:09;;;;;;;;;;;12.00;41.00;;;10.26;41.81;100885.78;8304520;28;20001;-93
2022/03/29 02:54:31;;;;;;;;;;;11.90;40.00;;;10.17;42.16;100881.84;8259019;28;20068;-90
2022/03/29 02:58:53;;;;;;;;;;;11.80;40.00;;;10.22;42.62;100884.22;8299974;28;20016;-92
2022/03/29 03:03:14;;;;;;;;;;;11.80;40.00;;;10.33;41.92;100899.38;8258735;28;20011;-92
2022/03/29 03:07:37;;;;;;;;;;;11.80;40.10;;;10.26;42.44;100884.91;8266963;28;20021;-93
2022/03/29 03:11:59;;;;;;;;;;;11.80;40.20;;;10.31;42.36;100890.78;8258427;28;20012;-92
2022/03/29 03:16:21;;;;;;;;;;;11.80;40.10;;;10.36;42.16;100896.59;8271767;28;20000;-93
2022/03/29 03:20:43;;;;;;;;;;;11.80;41.00;;;10.33;42.22;100891.53;8252614;28;20028;-92
2022/03/29 03:25:06;;;;;;;;;;;11.80;40.40;;;10.23;42.45;100867.63;8266652;28;20016;-92
2022/03/29 03:29:27;;;;;;;;;;;11.80;40.10;;;10.20;42.38;100866.03;8284144;28;20000;-92
2022/03/29 03:33:49;;;;;;;;;;;11.80;40.10;;;10.29;42.11;100874.34;8252921;28;20438;-92
2022/03/29 03:38:11;;;;;;;;;;;11.80;40.00;;;10.31;42.09;100872.50;8284623;28;20469;-90
2022/03/29 03:42:33;;;;;;;;;;;11.90;40.20;;;10.29;42.73;100866.50;8260790;28;20004;-92
2022/03/29 03:46:55;;;;;;;;;;;11.80;40.10;;;10.28;42.29;100862.22;8289576;28;20012;-92
2022/03/29 03:51:16;;;;;;;;;;;11.70;40.00;;;10.23;42.65;100851.13;8270056;28;20000;-93
2022/03/29 03:55:38;;;;;;;;;;;11.80;40.10;;;10.32;42.68;100863.75;8266650;28;20001;-92
2022/03/29 04:00:01;;;;;;;;;;;11.80;40.20;;;10.27;42.72;100845.72;8257821;28;20016;-92
2022/03/29 04:04:33;;;;;;;;;;;11.80;40.00;;;10.26;42.52;100846.63;8273262;28;20012;-92
2022/03/29 04:08:54;;;;;;;;;;;11.90;40.10;;;10.33;43.18;100868.88;8270616;28;20000;-92
2022/03/29 04:13:16;;;;;;;;;;;11.90;40.20;;;10.24;42.22;100851.06;8270705;28;20004;-91
2022/03/29 04:17:38;;;;;;;;;;;11.90;40.10;;;10.30;42.41;100863.00;8279327;28;20016;-92
2022/03/29 04:21:59;;;;;;;;;;;11.70;40.20;;;10.23;42.49;100848.53;8270923;28;20008;-94
2022/03/29 04:26:21;;;;;;;;;;;11.80;40.20;;;10.31;42.95;100856.84;8250751;28;20377;-92
2022/03/29 04:30:43;;;;;;;;;;;11.80;40.20;;;10.14;42.86;100831.59;8261749;28;20481;-92
2022/03/29 04:35:05;;;;;;;;;;;11.70;40.30;;;10.09;42.75;100831.81;8263058;28;20016;-93
2022/03/29 04:39:27;;;;;;;;;;;11.80;40.20;;;9.91;42.84;100809.28;8241342;28;20009;-91
2022/03/29 04:43:49;;;;;;;;;;;11.70;40.50;;;10.15;42.71;100844.56;8256353;28;20008;-92
2022/03/29 04:48:12;;;;;;;;;;;11.70;40.70;;;10.03;42.97;100839.97;8263281;28;20016;-92
2022/03/29 04:52:33;;;;;;;;;;;11.70;40.50;;;9.91;42.95;100819.72;8274806;28;19989;-92
2022/03/29 04:56:55;;;;;;;;;;;11.60;41.00;;;10.08;43.33;100840.56;8265326;28;20362;-90
2022/03/29 05:01:17;;;;;;;;;;;11.70;40.40;;;10.11;42.76;100847.41;8277600;28;20005;-92
2022/03/29 05:05:39;;;;;;;;;;;11.60;40.40;;;9.95;42.90;100827.31;8276084;28;20028;-92
2022/03/29 05:10:01;;;;;;;;;;;11.40;40.30;;;9.95;42.78;100829.91;8228101;28;20446;-91
2022/03/29 05:14:23;;;;;;;;;;;11.60;40.40;;;9.80;42.70;100811.59;8285137;28;20004;-92
2022/03/29 05:18:45;;;;;;;;;;;11.60;40.40;;;10.02;43.06;100835.69;8259672;28;20012;-92
2022/03/29 05:23:08;;;;;;;;;;;11.60;40.40;;;10.05;42.70;100838.13;8279689;28;20019;-90
2022/03/29 05:27:30;;;;;;;;;;;11.60;40.40;;;10.00;42.91;100831.47;8273518;28;20016;-93
2022/03/29 05:31:52;;;;;;;;;;;11.60;40.50;;;10.05;42.79;100840.75;8271977;28;20019;-84
2022/03/29 05:36:15;;;;;;;;;;;11.60;40.40;;;9.91;42.91;100827.53;8297428;28;20375;-82
2022/03/29 05:40:37;;;;;;;;;;;11.50;40.20;;;9.90;43.43;100831.06;8274649;28;20012;-94
2022/03/29 05:44:59;;;;;;;;;;;11.50;40.50;;;9.93;43.08;100841.34;8264744;28;20342;-94
2022/03/29 05:49:21;;;;;;;;;;;11.50;40.30;;;9.80;43.23;100816.81;8288535;28;20004;-87
2022/03/29 05:53:43;;;;;;;;;;;11.50;40.50;;;9.77;43.45;100830.00;8256763;28;20012;-93
2022/03/29 05:58:05;;;;;;;;;;;11.40;40.40;;;9.62;43.36;100811.59;8263172;28;20011;-92
2022/03/29 06:02:26;;;;;;;;;;;11.20;40.80;;;9.74;43.29;100837.06;8284056;28;20450;-91
2022/03/29 06:06:49;;;;;;;;;;;11.30;40.50;;;9.58;43.17;100827.47;8259446;28;19922;-90
2022/03/29 06:11:12;;;;;;;;;;;11.30;40.80;;;9.49;43.00;100813.13;8255007;28;19936;-85
2022/03/29 06:15:35;;;;;;;;;;;11.30;41.40;;;9.57;43.23;100828.41;8242304;28;20005;-93
2022/03/29 06:19:57;;;;;;;;;;;11.20;40.90;;;9.51;43.36;100821.72;8264113;28;20009;-92
2022/03/29 06:24:18;;;;;;;;;;;11.20;40.90;;;9.42;43.30;100806.53;8287143;28;20004;-86
2022/03/29 06:28:42;;;;;;;;;;;11.10;41.00;;;9.48;43.24;100816.66;8273315;28;19932;-88
2022/03/29 06:33:04;;;;;;;;;;;11.20;41.90;;;9.57;43.29;100834.44;8273284;28;20003;-88
2022/03/29 06:37:26;;;;;;;;;;;11.20;41.00;;;9.65;43.41;100842.75;8253739;28;20004;-85
2022/03/29 06:41:47;;;;;;;;;;;11.20;40.90;;;9.64;43.33;100835.84;8249327;28;20004;-84
2022/03/29 06:46:10;;;;;;;;;;;11.20;41.10;;;9.60;43.77;100834.28;8274364;28;20004;-92
2022/03/29 06:50:33;;;;;;;;;;;11.20;41.10;;;9.67;43.33;100850.50;8256146;28;20003;-91
2022/03/29 06:54:55;;;;;;;;;;;11.40;41.10;;;9.58;43.43;100833.53;8265301;28;20351;-92
2022/03/29 06:59:16;;;;;;;;;;;11.10;40.80;;;9.66;43.64;100839.19;8251900;28;20028;-91
2022/03/29 07:03:39;;;;;;;;;;;11.30;40.90;;;9.57;43.15;100829.25;8296039;28;20006;-91
2022/03/29 07:08:00;;;;;;;;;;;11.20;40.90;;;9.60;43.62;100830.84;8289641;28;20485;-93
2022/03/29 07:12:22;;;;;;;;;;;11.30;41.00;;;9.73;43.61;100850.19;8281520;28;20028;-95
2022/03/29 07:16:45;;;;;;;;;;;11.10;41.30;;;9.73;43.44;100832.78;8270287;28;20008;-94
2022/03/29 07:21:09;;;;;;;;;;;11.00;40.90;;;9.76;43.70;100844.81;8272807;28;20008;-94
2022/03/29 07:25:32;;;;;;;;;;;11.30;40.90;;;9.77;43.54;100837.81;8256945;28;20012;-95
2022/03/29 07:29:53;;;;;;;;;;;11.60;40.90;;;9.82;43.95;100838.44;8252534;28;20016;-95
2022/03/29 07:34:16;;;;;;;;;;;11.00;40.80;;;9.77;43.46;100830.00;8238137;28;20024;-92
2022/03/29 07:38:38;;;;;;;;;;;11.40;41.00;;;9.78;43.63;100826.50;8252012;28;20012;-94
2022/03/29 07:43:00;;;;;;;;;;;11.50;40.90;;;9.95;43.47;100829.09;8269817;28;20000;-88
2022/03/29 07:47:22;;;;;;;;;;;11.50;40.80;;;10.05;43.95;100832.91;8252721;28;19921;-92
2022/03/29 07:51:44;;;;;;;;;;;11.60;40.80;;;10.12;43.28;100847.31;8287177;28;20016;-92
2022/03/29 07:56:07;;;;;;;;;;;11.70;40.80;;;9.99;43.54;100807.16;8272954;28;20016;-90
2022/03/29 08:00:31;;;;;;;;;;;11.70;40.70;;;10.12;43.72;100823.00;8274797;28;20009;-92
2022/03/29 08:04:56;;;;;;;;;;;11.80;40.90;;;10.16;43.54;100820.16;8257932;28;20016;-93
2022/03/29 08:09:17;;;;;;;;;;;11.80;40.70;;;10.23;43.96;100822.44;8269246;28;20012;-91
2022/03/29 08:13:39;;;;;;;;;;;11.90;40.80;;;10.21;43.83;100791.22;8258367;28;20017;-92
2022/03/29 08:18:01;;;;;;;;;;;11.90;40.60;;;10.29;43.68;100790.81;8298835;28;20007;-89
2022/03/29 08:22:23;;;;;;;;;;;12.00;40.50;;;10.50;43.19;100817.56;8267880;28;20347;-91
2022/03/29 08:26:49;;;;;;;;;;;12.10;40.40;;;10.59;43.54;100809.25;8251732;28;20013;-93
2022/03/29 08:31:11;;;;;;;;;;;12.20;40.40;;;10.66;44.16;100778.41;8264147;28;20016;-94
2022/03/29 08:35:34;;;;;;;;;;;12.30;40.60;;;10.82;43.74;100780.06;8239745;28;20012;-93
2022/03/29 08:39:56;;;;;;;;;;;12.50;40.50;;;10.91;43.58;100762.22;8243736;28;20015;-94
2022/03/29 08:44:19;;;;;;;;;;;12.60;40.30;;;11.07;43.58;100757.81;8273622;28;20056;-94
2022/03/29 08:48:43;;;;;;;;;;;12.70;40.30;;;11.23;43.12;100768.22;8248163;28;20020;-82
2022/03/29 08:53:06;;;;;;;;;;;12.90;40.10;;;11.22;43.86;100740.41;8286577;28;20450;-81
2022/03/29 08:57:28;;;;;;;;;;;13.00;40.10;;;11.44;43.51;100767.00;8298008;28;20017;-82
2022/03/29 09:01:50;;;;;;;;;;;13.00;39.80;;;11.55;43.89;100768.97;8277633;28;20000;-95
2022/03/29 09:06:12;;;;;;;;;;;13.10;39.80;;;11.54;43.48;100735.09;8282003;28;20028;-92
2022/03/29 09:11:04;;;;;;;;;;;13.20;39.80;;;11.85;43.40;100760.25;8257972;28;20000;-85
2022/03/29 09:15:35;;;;;;;;;;;13.40;39.80;;;11.79;43.60;100724.00;8266425;28;20374;-90
2022/03/29 09:20:02;;;;;;;;;;;13.60;39.60;;;12.13;43.64;100756.84;8257462;28;20007;-90
2022/03/29 09:24:24;;;;;;;;;;;13.70;39.50;;;12.22;43.62;100742.34;8251737;28;20016;-91
2022/03/29 09:28:50;;;;;;;;;;;13.90;39.50;;;12.35;43.42;100746.72;8263101;28;19921;-84
2022/03/29 09:33:14;;;;;;;;;;;14.00;39.10;;;12.23;43.43;100700.34;8258455;28;20016;-82
2022/03/29 09:37:36;;;;;;;;;;;14.10;39.20;;;12.62;43.20;100732.84;8298617;28;20453;-90
2022/03/29 09:41:59;;;;;;;;;;;14.20;38.60;;;12.70;43.35;100721.88;8271756;28;20012;-90
2022/03/29 09:46:31;;;;;;;;;;;14.30;38.70;;;12.86;43.49;100716.47;8274688;28;19989;-94
2022/03/29 09:51:12;;;;;;;;;;;14.60;38.60;;;13.09;42.97;100722.84;8269610;28;19988;-89
2022/03/29 09:55:33;;;;;;;;;;;14.70;38.90;;;13.05;43.14;100711.72;8277511;28;20086;-94
2022/03/29 09:59:55;;;;;;;;;;;15.20;38.90;;;13.11;43.31;100720.97;8270837;28;20004;-93
2022/03/29 10:04:18;;;;;;;;;;;14.90;38.60;;;13.01;42.88;100697.13;8233127;28;20000;-91
2022/03/29 10:13:25;;;;;;;;;;;15.10;38.50;;;13.28;43.21;100699.72;8266548;28;20004;-92
2022/03/29 10:17:48;;;;;;;;;;;15.00;38.40;;;13.46;43.16;100713.38;8258692;28;20016;-89
2022/03/29 10:22:12;;;;;;;;;;;15.10;38.60;;;13.54;43.17;100700.59;8272552;28;20012;-93
2022/03/29 10:26:34;;;;;;;;;;;15.20;38.30;;;13.58;43.17;100678.44;8272966;28;20402;-89
2022/03/29 10:30:57;;;;;;;;;;;15.30;38.50;;;13.78;42.86;100690.19;8252682;28;20008;-90
2022/03/29 10:35:19;;;;;;;;;;;15.40;37.90;;;13.90;42.87;100680.63;8271509;28;20016;-90
2022/03/29 10:39:47;;;;;;;;;;;15.50;38.20;;;13.77;42.78;100661.41;8260827;28;20000;-90
2022/03/29 10:44:08;;;;;;;;;;;15.60;38.00;;;13.81;42.64;100665.53;8256691;28;20004;-90
2022/03/29 10:48:30;;;;;;;;;;;15.60;37.60;;;13.91;42.73;100664.78;8278025;28;19928;-91
2022/03/29 10:52:52;;;;;;;;;;;15.40;37.50;;;13.84;42.43;100636.44;8285496;28;20000;-91
2022/03/29 10:57:25;;;;;;;;;;;15.60;36.90;;;13.93;42.40;100630.53;8268690;28;20010;-90
2022/03/29 11:02:08;;;;;;;;;;;15.70;37.80;;;14.19;42.62;100654.09;8260056;28;20005;-89
2022/03/29 11:06:30;;;;;;;;;;;15.80;37.90;;;14.25;42.38;100635.28;8270200;28;19921;-83
2022/03/29 11:10:52;;;;;;;;;;;15.90;37.00;;;14.42;42.55;100645.41;8264952;28;20012;-90
2022/03/29 11:15:27;;;;;;;;;;;16.00;37.60;;;14.50;42.46;100637.81;8287188;28;20073;-88
2022/03/29 11:19:50;;;;;;;;;;;16.20;36.70;;;14.59;42.19;100634.53;8260243;28;19923;-92
2022/03/29 11:24:13;;;;;;;;;;;16.20;36.50;;;14.67;42.44;100641.03;8282220;28;19985;-94
2022/03/29 11:28:36;;;;;;;;;;;16.30;36.70;;;14.55;42.14;100612.03;8250705;28;19921;-90
2022/03/29 11:32:59;;;;;;;;;;;16.30;36.70;;;14.67;42.05;100605.06;8263076;28;20015;-81
2022/03/29 11:37:43;;;;;;;;;;;16.30;37.20;;;14.75;41.88;100609.75;8274328;28;20462;-86
2022/03/29 11:42:05;;;;;;;;;;;16.40;36.20;;;14.74;42.17;100603.66;8222226;28;20016;-85
2022/03/29 11:46:49;;;;;;;;;;;16.40;37.00;;;14.67;41.85;100589.28;8269311;28;19990;-84
2022/03/29 11:51:11;;;;;;;;;;;16.40;36.60;;;14.51;41.92;100572.94;8267364;28;20012;-85
2022/03/29 11:55:33;;;;;;;;;;;16.40;36.80;;;14.52;41.80;100583.38;8295249;28;20011;-85
2022/03/29 11:59:55;;;;;;;;;;;16.30;36.70;;;14.55;41.67;100575.25;8288998;28;20105;-85
2022/03/29 12:04:17;;;;;;;;;;;16.30;37.00;;;14.68;41.98;100593.56;8265193;28;20400;-86
2022/03/29 12:08:53;;;;;;;;;;;16.30;37.10;;;14.70;41.85;100567.19;8266079;28;19928;-85
2022/03/29 12:13:16;;;;;;;;;;;16.30;36.70;;;14.81;41.74;100568.03;8241512;28;20005;-84
2022/03/29 12:17:51;;;;;;;;;;;16.30;36.90;;;14.86;41.77;100562.44;8280575;28;20434;-84
2022/03/29 12:22:13;;;;;;;;;;;16.40;36.20;;;14.89;41.60;100559.59;8281132;28;20005;-85
2022/03/29 12:26:47;;;;;;;;;;;16.40;36.50;;;15.02;41.41;100557.69;8284072;28;19921;-86
2022/03/29 12:31:10;;;;;;;;;;;16.60;36.60;;;14.97;41.25;100543.22;8276259;28;20004;-87
2022/03/29 12:35:33;;;;;;;;;;;16.60;34.90;;;15.05;41.33;100546.94;8271913;28;20025;-86
2022/03/29 12:40:04;;;;;;;;;;;16.60;35.00;;;14.92;41.29;100519.91;8312224;28;20008;-86
2022/03/29 12:44:44;;;;;;;;;;;16.60;35.90;;;14.95;41.22;100498.63;8278200;28;20390;-86
2022/03/29 12:49:06;;;;;;;;;;;16.60;36.30;;;15.18;41.42;100510.00;8263125;28;20306;-87
2022/03/29 12:53:27;;;;;;;;;;;16.70;36.30;;;15.13;41.29;100479.78;8283430;28;20004;-87
2022/03/29 12:57:58;;;;;;;;;;;16.80;36.80;;;15.32;40.96;100489.69;8278586;28;20008;-87
2022/03/29 13:02:24;;;;;;;;;;;17.00;36.20;;;15.32;41.20;100473.91;8244255;28;20013;-85
2022/03/29 13:06:46;;;;;;;;;;;16.90;34.60;;;15.34;40.99;100477.22;8269333;28;20020;-86
2022/03/29 13:11:17;;;;;;;;;;;16.80;35.70;;;15.43;40.91;100465.97;8279413;28;19923;-85
2022/03/29 13:15:56;;;;;;;;;;;17.00;35.40;;;15.53;40.94;100481.84;8286961;28;20354;-85
2022/03/29 13:20:24;;;;;;;;;;;17.10;36.00;;;15.45;40.89;100462.28;8256068;28;20028;-85
2022/03/29 13:24:46;;;;;;;;;;;17.10;36.10;;;15.55;40.87;100479.94;8298914;28;20012;-85
2022/03/29 13:29:10;;;;;;;;;;;17.00;36.00;;;15.53;40.69;100469.56;8268930;28;19949;-86
2022/03/29 13:33:33;;;;;;;;;;;17.10;36.10;;;15.43;41.11;100456.28;8240504;28;20016;-84
2022/03/29 13:37:55;;;;;;;;;;;17.10;36.00;;;15.42;40.69;100467.78;8302698;28;20004;-85
2022/03/29 13:42:17;;;;;;;;;;;17.00;36.20;;;15.20;40.54;100441.47;8282012;28;20012;-84
2022/03/29 13:46:39;;;;;;;;;;;16.90;36.20;;;15.29;40.80;100450.47;8279713;28;20020;-85
2022/03/29 13:51:03;;;;;;;;;;;16.90;36.00;;;15.29;40.55;100461.81;8279378;28;19932;-85
2022/03/29 13:55:25;;;;;;;;;;;16.80;36.20;;;15.24;40.47;100450.81;8285715;28;19918;-83
2022/03/29 13:59:47;;;;;;;;;;;16.80;35.80;;;14.98;40.73;100406.34;8282360;28;20031;-85
2022/03/29 14:04:09;;;;;;;;;;;16.70;36.40;;;15.15;40.60;100438.38;8267409;28;20016;-84
2022/03/29 14:08:34;;;;;;;;;;;16.70;36.40;;;15.14;40.72;100423.56;8282197;28;20382;-85
2022/03/29 14:12:56;;;;;;;;;;;16.70;36.10;;;15.16;40.67;100419.03;8270794;28;19927;-86
2022/03/29 14:17:18;;;;;;;;;;;16.70;35.70;;;15.15;40.74;100398.91;8250174;28;19921;-88
2022/03/29 14:21:40;;;;;;;;;;;16.70;36.10;;;15.25;40.54;100423.53;8246466;28;19921;-85
2022/03/29 14:26:02;;;;;;;;;;;16.70;35.90;;;15.14;40.50;100403.34;8239886;28;19927;-85
2022/03/29 14:30:27;;;;;;;;;;;16.90;36.20;;;15.23;40.80;100405.28;8243112;28;19928;-85
2022/03/29 14:34:49;;;;;;;;;;;16.70;36.30;;;14.83;40.40;100336.59;8269776;28;20298;-85
2022/03/29 14:39:11;;;;;;;;;;;16.70;36.20;;;15.26;40.50;100391.88;8246169;28;19921;-84
2022/03/29 14:43:33;;;;;;;;;;;16.80;35.80;;;15.29;40.57;100392.59;8254131;28;19925;-84
2022/03/29 14:47:55;;;;;;;;;;;16.70;35.30;;;15.26;40.29;100391.88;8269906;28;19925;-84
2022/03/29 14:52:19;;;;;;;;;;;16.80;35.80;;;15.35;40.38;100398.19;8256068;28;19925;-85
2022/03/29 14:56:41;;;;;;;;;;;16.90;35.80;;;15.31;40.20;100388.88;8262549;28;19922;-85
2022/03/29 15:01:02;;;;;;;;;;;16.80;35.70;;;15.24;40.51;100371.91;8255721;28;20405;-84
2022/03/29 15:05:25;;;;;;;;;;;16.80;36.10;;;15.32;40.39;100374.75;8264571;28;19922;-84
2022/03/29 15:09:46;;;;;;;;;;;16.80;35.90;;;15.38;40.11;100384.78;8273807;28;19925;-84
2022/03/29 15:14:08;;;;;;;;;;;16.80;36.10;;;15.37;40.30;100372.59;8271460;28;20603;-84
2022/03/29 15:18:31;;;;;;;;;;;16.80;35.00;;;15.30;40.12;100373.19;8240301;28;20414;-85
2022/03/29 15:22:56;;;;;;;;;;;16.80;35.40;;;15.28;39.79;100370.69;8228818;28;19928;-84
2022/03/29 15:27:21;;;;;;;;;;;17.00;35.60;;;14.37;39.84;100235.09;8258039;28;19926;-87
2022/03/29 15:31:47;;;;;;;;;;;16.70;35.10;;;14.83;40.11;100316.41;8239895;28;19921;-83
2022/03/29 15:36:10;;;;;;;;;;;16.70;34.90;;;15.08;39.86;100361.78;8269326;28;19931;-87
2022/03/29 15:40:37;;;;;;;;;;;16.60;34.00;;;14.97;39.94;100343.38;8260206;28;20289;-86
2022/03/29 15:45:00;;;;;;;;;;;16.70;34.80;;;14.98;39.83;100364.28;8267766;28;19922;-86
2022/03/29 15:49:21;;;;;;;;;;;16.50;35.00;;;14.84;39.86;100346.16;8243105;28;19926;-86
2022/03/29 15:53:43;;;;;;;;;;;16.30;35.20;;;14.82;39.59;100356.81;8258842;28;20807;-87
2022/03/29 15:58:05;;;;;;;;;;;16.30;35.30;;;14.82;39.97;100348.06;8259815;28;20388;-84
2022/03/29 16:02:26;;;;;;;;;;;16.30;35.50;;;14.79;39.88;100351.75;8263942;28;19921;-85
2022/03/29 16:06:48;;;;;;;;;;;16.20;35.10;;;14.64;39.59;100337.22;8260371;28;19925;-85
2022/03/29 16:11:09;;;;;;;;;;;16.20;34.70;;;14.58;39.64;100322.78;8241424;28;20808;-84
2022/03/29 16:15:31;;;;;;;;;;;16.20;34.40;;;14.74;39.78;100342.56;8268758;28;19928;-85
2022/03/29 16:19:53;;;;;;;;;;;16.10;34.80;;;14.67;39.39;100334.34;8265410;28;19928;-86
2022/03/29 16:24:15;;;;;;;;;;;16.10;35.20;;;14.60;39.51;100330.50;8256085;28;19928;-85
2022/03/29 16:28:38;;;;;;;;;;;16.10;35.10;;;14.58;39.76;100333.28;8272906;28;19925;-85
2022/03/29 16:33:00;;;;;;;;;;;16.00;34.80;;;14.57;39.57;100343.91;8257377;28;19928;-82
2022/03/29 16:37:22;;;;;;;;;;;15.90;35.30;;;14.57;39.54;100339.47;8273762;28;19927;-86
2022/03/29 16:41:44;;;;;;;;;;;16.00;35.10;;;14.28;39.39;100311.97;8245950;28;19921;-85
2022/03/29 16:46:06;;;;;;;;;;;16.00;35.20;;;14.41;39.72;100333.72;8258426;28;19922;-86
2022/03/29 16:50:27;;;;;;;;;;;15.90;35.30;;;14.34;39.72;100322.84;8259724;28;19926;-85
2022/03/29 16:54:49;;;;;;;;;;;15.90;35.00;;;14.32;39.67;100326.56;8261523;28;19929;-85
2022/03/29 16:59:11;;;;;;;;;;;15.80;34.50;;;14.33;39.55;100344.81;8243470;28;19921;-86
2022/03/29 17:03:34;;;;;;;;;;;15.80;35.00;;;14.22;39.63;100338.72;8241524;28;19925;-86
2022/03/29 17:07:56;;;;;;;;;;;15.70;35.30;;;14.21;39.55;100335.25;8263516;28;19925;-86
2022/03/29 17:12:18;;;;;;;;;;;15.60;35.40;;;14.23;39.70;100340.38;8236640;28;19944;-85
2022/03/29 17:16:42;;;;;;;;;;;15.60;35.40;;;14.15;39.21;100330.47;8273621;28;19928;-85
2022/03/29 17:21:04;;;;;;;;;;;15.60;35.30;;;13.93;39.39;100302.38;8269098;28;19925;-86
2022/03/29 17:25:26;;;;;;;;;;;15.60;35.30;;;14.08;39.17;100331.91;8268283;28;19928;-86
2022/03/29 17:29:48;;;;;;;;;;;15.60;35.40;;;13.95;39.28;100321.47;8256772;28;19932;-85
2022/03/29 17:34:12;;;;;;;;;;;15.40;35.30;;;13.84;39.29;100314.41;8243928;28;19958;-85
2022/03/29 17:38:33;;;;;;;;;;;15.40;35.40;;;13.85;39.33;100323.13;8255576;28;19928;-85
2022/03/29 17:42:55;;;;;;;;;;;15.40;35.40;;;13.88;39.31;100338.63;8240988;28;20416;-84
2022/03/29 17:47:16;;;;;;;;;;;15.30;35.10;;;13.77;39.22;100330.75;8256967;28;19922;-84
2022/03/29 17:51:38;;;;;;;;;;;15.30;35.40;;;13.79;39.48;100339.34;8259391;28;19927;-85
2022/03/29 17:56:03;;;;;;;;;;;15.30;35.50;;;13.73;39.49;100341.47;8243643;28;19925;-85
2022/03/29 18:00:24;;;;;;;;;;;15.20;35.40;;;13.69;39.25;100328.69;8255382;28;19940;-85
2022/03/29 18:04:46;;;;;;;;;;;15.20;35.60;;;13.56;39.54;100318.28;8250188;28;19921;-85
2022/03/29 18:09:08;;;;;;;;;;;15.00;35.50;;;13.66;39.26;100339.41;8250910;28;19936;-85
2022/03/29 18:13:30;;;;;;;;;;;15.20;35.70;;;13.67;39.24;100335.84;8263824;28;19944;-85
2022/03/29 18:17:52;;;;;;;;;;;15.10;35.60;;;13.44;39.37;100311.31;8252172;28;19928;-85
2022/03/29 18:22:13;;;;;;;;;;;15.10;35.60;;;13.59;39.32;100349.53;8266757;28;19928;-84
2022/03/29 18:26:35;;;;;;;;;;;15.00;35.60;;;13.52;39.35;100355.34;8242571;28;19928;-84
2022/03/29 18:30:58;;;;;;;;;;;15.00;35.60;;;12.96;39.34;100277.19;8251559;28;19931;-85
2022/03/29 18:35:25;;;;;;;;;;;14.90;35.60;;;13.25;39.33;100340.63;8241197;28;20951;-84
2022/03/29 18:39:47;;;;;;;;;;;14.80;35.70;;;13.27;39.27;100355.34;8249631;28;19929;-83
2022/03/29 18:44:09;;;;;;;;;;;14.70;35.70;;;13.16;39.30;100347.38;8274640;28;19922;-84
2022/03/29 18:48:31;;;;;;;;;;;14.80;35.80;;;13.15;39.06;100353.59;8265991;28;19932;-84
2022/03/29 18:52:55;;;;;;;;;;;14.60;35.80;;;13.05;39.28;100344.72;8265942;28;19918;-85
2022/03/29 18:57:17;;;;;;;;;;;14.80;35.80;;;13.12;39.24;100364.28;8249401;28;19921;-85
2022/03/29 19:01:38;;;;;;;;;;;14.50;35.80;;;13.09;39.00;100355.81;8263672;28;20000;-83
2022/03/29 19:06:00;;;;;;;;;;;14.50;35.80;;;13.03;39.16;100357.09;8276240;28;20012;-87
2022/03/29 19:10:24;;;;;;;;;;;14.40;35.80;;;12.99;39.29;100359.09;8252153;28;20361;-86
2022/03/29 19:14:46;;;;;;;;;;;14.40;35.80;;;12.82;39.35;100338.47;8273588;28;20004;-85
2022/03/29 19:19:18;;;;;;;;;;;14.30;35.80;;;12.90;39.26;100362.34;8264578;28;20016;-85
2022/03/29 19:23:49;;;;;;;;;;;14.30;35.80;;;12.31;39.27;100292.28;8240232;28;20382;-83
2022/03/29 19:28:13;;;;;;;;;;;14.50;35.90;;;12.60;39.04;100355.69;8238384;28;20412;-84
2022/03/29 19:32:38;;;;;;;;;;;14.10;35.70;;;12.59;39.47;100367.13;8268130;28;20015;-86
2022/03/29 19:37:05;;;;;;;;;;;14.00;35.80;;;12.54;39.26;100363.16;8261841;28;20008;-86
2022/03/29 19:41:29;;;;;;;;;;;13.80;35.70;;;12.43;39.27;100355.22;8252725;28;20370;-85
2022/03/29 19:45:54;;;;;;;;;;;13.90;35.80;;;12.34;39.24;100357.50;8254054;28;20011;-85
2022/03/29 19:50:39;;;;;;;;;;;13.80;35.90;;;12.24;39.39;100353.84;8243477;28;19948;-85
2022/03/29 19:55:03;;;;;;;;;;;13.40;35.80;;;12.21;39.15;100368.94;8252273;28;20008;-85
2022/03/29 19:59:25;;;;;;;;;;;13.60;35.90;;;12.16;39.13;100361.38;8242660;28;20012;-84
2022/03/29 20:03:47;;;;;;;;;;;13.60;36.00;;;11.85;39.25;100326.75;8263709;28;20012;-83
2022/03/29 20:08:09;;;;;;;;;;;13.50;36.00;;;11.93;39.17;100363.75;8243848;28;19921;-83